sensor_id;sensor_type;location;lat;lon;timestamp;P1;durP1;ratioP1;P2;durP2;ratioP2
12892;SDS011;6514;48.606;9.222;2023-03-14T00:00:01;0.80;;;0.70;;
12892;SDS011;6514;48.606;9.222;2023-03-14T00:02:31;1.50;;;1.00;;
12892;SDS011;6514;48.606;9.222;2023-03-14T00:04:57;1.53;;;0.60;;
12892;SDS011;6514;48.606;9.222;2023-03-14T00:07:24;1.33;;;0.70;;
12892;SDS011;6514;48.606;9.222;2023-03-14T00:09:51;1.87;;;0.90;;
12892;SDS011;6514;48.606;9.222;2023-03-14T00:12:18;1.63;;;0.80;;
12892;SDS011;6514;48.606;9.222;2023-03-14T00:14:46;0.50;;;0.50;;
12892;SDS011;6514;48.606;9.222;2023-03-14T00:17:13;1.27;;;0.60;;
12892;SDS011;6514;48.606;9.222;2023-03-14T00:19:40;1.00;;;0.50;;
12892;SDS011;6514;48.606;9.222;2023-03-14T00:22:07;0.63;;;0.50;;
12892;SDS011;6514;48.606;9.222;2023-03-14T00:24:34;1.67;;;0.60;;
12892;SDS011;6514;48.606;9.222;2023-03-14T00:27:00;1.23;;;0.70;;
12892;SDS011;6514;48.606;9.222;2023-03-14T00:29:27;0.80;;;0.80;;
12892;SDS011;6514;48.606;9.222;2023-03-14T00:31:55;1.10;;;0.70;;
12892;SDS011;6514;48.606;9.222;2023-03-14T00:34:22;1.17;;;0.50;;
12892;SDS011;6514;48.606;9.222;2023-03-14T00:36:49;0.70;;;0.70;;
12892;SDS011;6514;48.606;9.222;2023-03-14T00:39:16;0.60;;;0.60;;
12892;SDS011;6514;48.606;9.222;2023-03-14T00:41:43;0.50;;;0.50;;
12892;SDS011;6514;48.606;9.222;2023-03-14T00:44:09;0.60;;;0.60;;
12892;SDS011;6514;48.606;9.222;2023-03-14T00:46:36;0.73;;;0.73;;
12892;SDS011;6514;48.606;9.222;2023-03-14T00:49:05;0.70;;;0.70;;
12892;SDS011;6514;48.606;9.222;2023-03-14T00:51:31;3.33;;;0.63;;
12892;SDS011;6514;48.606;9.222;2023-03-14T00:53:59;0.70;;;0.60;;
12892;SDS011;6514;48.606;9.222;2023-03-14T00:56:26;1.27;;;0.67;;
12892;SDS011;6514;48.606;9.222;2023-03-14T00:58:53;0.60;;;0.60;;
12892;SDS011;6514;48.606;9.222;2023-03-14T01:01:20;0.93;;;0.70;;
12892;SDS011;6514;48.606;9.222;2023-03-14T01:03:50;1.33;;;0.60;;
12892;SDS011;6514;48.606;9.222;2023-03-14T01:06:20;1.17;;;0.80;;
12892;SDS011;6514;48.606;9.222;2023-03-14T01:08:48;0.60;;;0.50;;
12892;SDS011;6514;48.606;9.222;2023-03-14T01:11:16;0.60;;;0.60;;
12892;SDS011;6514;48.606;9.222;2023-03-14T01:13:45;1.03;;;0.50;;
12892;SDS011;6514;48.606;9.222;2023-03-14T01:16:13;0.47;;;0.47;;
12892;SDS011;6514;48.606;9.222;2023-03-14T01:18:41;1.43;;;0.40;;
12892;SDS011;6514;48.606;9.222;2023-03-14T01:21:10;0.50;;;0.50;;
12892;SDS011;6514;48.606;9.222;2023-03-14T01:23:40;0.43;;;0.43;;
12892;SDS011;6514;48.606;9.222;2023-03-14T01:26:08;0.37;;;0.37;;
12892;SDS011;6514;48.606;9.222;2023-03-14T01:28:36;1.20;;;0.40;;
12892;SDS011;6514;48.606;9.222;2023-03-14T01:31:03;0.40;;;0.40;;
12892;SDS011;6514;48.606;9.222;2023-03-14T01:33:31;0.60;;;0.43;;
12892;SDS011;6514;48.606;9.222;2023-03-14T01:35:57;1.23;;;0.40;;
12892;SDS011;6514;48.606;9.222;2023-03-14T01:38:27;0.63;;;0.60;;
12892;SDS011;6514;48.606;9.222;2023-03-14T01:40:55;0.40;;;0.40;;
12892;SDS011;6514;48.606;9.222;2023-03-14T01:43:22;0.40;;;0.40;;
12892;SDS011;6514;48.606;9.222;2023-03-14T01:48:54;0.57;;;0.40;;
12892;SDS011;6514;48.606;9.222;2023-03-14T01:51:27;1.80;;;0.40;;
12892;SDS011;6514;48.606;9.222;2023-03-14T01:53:59;0.40;;;0.40;;
12892;SDS011;6514;48.606;9.222;2023-03-14T01:56:31;0.60;;;0.30;;
12892;SDS011;6514;48.606;9.222;2023-03-14T01:59:09;1.13;;;0.47;;
12892;SDS011;6514;48.606;9.222;2023-03-14T02:01:37;0.70;;;0.70;;
12892;SDS011;6514;48.606;9.222;2023-03-14T02:04:06;1.33;;;0.40;;
12892;SDS011;6514;48.606;9.222;2023-03-14T02:06:36;0.40;;;0.40;;
12892;SDS011;6514;48.606;9.222;2023-03-14T02:09:10;0.40;;;0.40;;
12892;SDS011;6514;48.606;9.222;2023-03-14T02:11:38;0.73;;;0.47;;
12892;SDS011;6514;48.606;9.222;2023-03-14T02:14:06;0.60;;;0.50;;
12892;SDS011;6514;48.606;9.222;2023-03-14T02:16:39;0.60;;;0.30;;
12892;SDS011;6514;48.606;9.222;2023-03-14T02:19:07;0.40;;;0.37;;
12892;SDS011;6514;48.606;9.222;2023-03-14T02:21:38;0.30;;;0.30;;
12892;SDS011;6514;48.606;9.222;2023-03-14T02:24:16;0.40;;;0.40;;
12892;SDS011;6514;48.606;9.222;2023-03-14T02:27:05;0.50;;;0.50;;
12892;SDS011;6514;48.606;9.222;2023-03-14T02:29:33;0.60;;;0.30;;
12892;SDS011;6514;48.606;9.222;2023-03-14T02:32:04;0.40;;;0.40;;
12892;SDS011;6514;48.606;9.222;2023-03-14T02:34:31;1.03;;;0.40;;
12892;SDS011;6514;48.606;9.222;2023-03-14T02:36:59;0.40;;;0.40;;
12892;SDS011;6514;48.606;9.222;2023-03-14T02:39:28;0.37;;;0.37;;
12892;SDS011;6514;48.606;9.222;2023-03-14T02:42:01;1.03;;;0.60;;
12892;SDS011;6514;48.606;9.222;2023-03-14T02:44:29;1.33;;;0.50;;
12892;SDS011;6514;48.606;9.222;2023-03-14T02:46:56;0.70;;;0.43;;
12892;SDS011;6514;48.606;9.222;2023-03-14T02:49:23;0.93;;;0.40;;
12892;SDS011;6514;48.606;9.222;2023-03-14T02:51:53;1.03;;;0.40;;
12892;SDS011;6514;48.606;9.222;2023-03-14T02:54:20;0.60;;;0.50;;
12892;SDS011;6514;48.606;9.222;2023-03-14T02:56:47;0.47;;;0.47;;
12892;SDS011;6514;48.606;9.222;2023-03-14T02:59:14;0.97;;;0.50;;
12892;SDS011;6514;48.606;9.222;2023-03-14T03:01:42;0.40;;;0.40;;
12892;SDS011;6514;48.606;9.222;2023-03-14T03:04:09;0.70;;;0.50;;
12892;SDS011;6514;48.606;9.222;2023-03-14T03:06:36;0.50;;;0.43;;
12892;SDS011;6514;48.606;9.222;2023-03-14T03:09:03;0.40;;;0.40;;
12892;SDS011;6514;48.606;9.222;2023-03-14T03:11:30;1.43;;;0.50;;
12892;SDS011;6514;48.606;9.222;2023-03-14T03:13:57;0.37;;;0.37;;
12892;SDS011;6514;48.606;9.222;2023-03-14T03:16:24;0.43;;;0.40;;
12892;SDS011;6514;48.606;9.222;2023-03-14T03:18:53;1.33;;;0.60;;
12892;SDS011;6514;48.606;9.222;2023-03-14T03:21:20;0.40;;;0.40;;
12892;SDS011;6514;48.606;9.222;2023-03-14T03:23:48;1.23;;;0.70;;
12892;SDS011;6514;48.606;9.222;2023-03-14T03:26:15;1.07;;;0.47;;
12892;SDS011;6514;48.606;9.222;2023-03-14T03:28:42;1.27;;;0.70;;
12892;SDS011;6514;48.606;9.222;2023-03-14T03:31:09;1.13;;;0.60;;
12892;SDS011;6514;48.606;9.222;2023-03-14T03:33:37;1.13;;;0.50;;
12892;SDS011;6514;48.606;9.222;2023-03-14T03:36:06;0.97;;;0.50;;
12892;SDS011;6514;48.606;9.222;2023-03-14T03:38:34;1.33;;;0.70;;
12892;SDS011;6514;48.606;9.222;2023-03-14T03:41:02;1.80;;;0.70;;
12892;SDS011;6514;48.606;9.222;2023-03-14T03:43:29;0.93;;;0.50;;
12892;SDS011;6514;48.606;9.222;2023-03-14T03:45:56;0.80;;;0.60;;
12892;SDS011;6514;48.606;9.222;2023-03-14T03:48:24;0.50;;;0.40;;
12892;SDS011;6514;48.606;9.222;2023-03-14T03:50:50;0.50;;;0.50;;
12892;SDS011;6514;48.606;9.222;2023-03-14T03:53:19;1.07;;;0.60;;
12892;SDS011;6514;48.606;9.222;2023-03-14T03:55:45;1.33;;;0.60;;
12892;SDS011;6514;48.606;9.222;2023-03-14T03:58:12;0.63;;;0.57;;
12892;SDS011;6514;48.606;9.222;2023-03-14T04:00:39;0.80;;;0.60;;
12892;SDS011;6514;48.606;9.222;2023-03-14T04:03:06;1.30;;;0.50;;
12892;SDS011;6514;48.606;9.222;2023-03-14T04:05:34;1.10;;;0.60;;
12892;SDS011;6514;48.606;9.222;2023-03-14T04:08:02;1.37;;;0.53;;
12892;SDS011;6514;48.606;9.222;2023-03-14T04:10:33;0.70;;;0.57;;
12892;SDS011;6514;48.606;9.222;2023-03-14T04:13:00;2.43;;;0.67;;
12892;SDS011;6514;48.606;9.222;2023-03-14T04:15:27;1.20;;;0.53;;
12892;SDS011;6514;48.606;9.222;2023-03-14T04:17:56;1.43;;;0.80;;
12892;SDS011;6514;48.606;9.222;2023-03-14T04:20:23;2.10;;;0.77;;
12892;SDS011;6514;48.606;9.222;2023-03-14T04:22:50;2.27;;;0.80;;
12892;SDS011;6514;48.606;9.222;2023-03-14T04:25:17;1.23;;;0.53;;
12892;SDS011;6514;48.606;9.222;2023-03-14T04:27:46;2.27;;;0.90;;
12892;SDS011;6514;48.606;9.222;2023-03-14T04:30:13;1.00;;;0.70;;
12892;SDS011;6514;48.606;9.222;2023-03-14T04:32:40;3.57;;;0.60;;
12892;SDS011;6514;48.606;9.222;2023-03-14T04:35:07;1.70;;;0.80;;
12892;SDS011;6514;48.606;9.222;2023-03-14T04:37:34;1.90;;;0.60;;
12892;SDS011;6514;48.606;9.222;2023-03-14T04:40:02;1.40;;;0.60;;
12892;SDS011;6514;48.606;9.222;2023-03-14T04:42:31;1.53;;;0.70;;
12892;SDS011;6514;48.606;9.222;2023-03-14T04:44:59;0.60;;;0.60;;
12892;SDS011;6514;48.606;9.222;2023-03-14T04:47:26;1.33;;;0.70;;
12892;SDS011;6514;48.606;9.222;2023-03-14T04:49:53;2.70;;;0.70;;
12892;SDS011;6514;48.606;9.222;2023-03-14T04:52:20;2.03;;;0.80;;
12892;SDS011;6514;48.606;9.222;2023-03-14T04:54:47;2.47;;;0.70;;
12892;SDS011;6514;48.606;9.222;2023-03-14T04:57:13;1.80;;;0.53;;
12892;SDS011;6514;48.606;9.222;2023-03-14T04:59:40;1.07;;;0.60;;
12892;SDS011;6514;48.606;9.222;2023-03-14T05:02:08;1.10;;;0.67;;
12892;SDS011;6514;48.606;9.222;2023-03-14T05:04:35;1.00;;;0.60;;
12892;SDS011;6514;48.606;9.222;2023-03-14T05:07:02;2.73;;;0.60;;
12892;SDS011;6514;48.606;9.222;2023-03-14T05:09:29;3.10;;;0.70;;
12892;SDS011;6514;48.606;9.222;2023-03-14T05:11:56;1.73;;;0.70;;
12892;SDS011;6514;48.606;9.222;2023-03-14T05:14:23;1.20;;;0.60;;
12892;SDS011;6514;48.606;9.222;2023-03-14T05:16:50;1.17;;;0.50;;
12892;SDS011;6514;48.606;9.222;2023-03-14T05:19:19;1.63;;;0.60;;
12892;SDS011;6514;48.606;9.222;2023-03-14T05:21:46;1.43;;;0.50;;
12892;SDS011;6514;48.606;9.222;2023-03-14T05:24:13;2.50;;;0.67;;
12892;SDS011;6514;48.606;9.222;2023-03-14T05:26:39;3.63;;;0.73;;
12892;SDS011;6514;48.606;9.222;2023-03-14T05:29:06;3.70;;;0.90;;
12892;SDS011;6514;48.606;9.222;2023-03-14T05:31:33;2.03;;;0.57;;
12892;SDS011;6514;48.606;9.222;2023-03-14T05:34:00;1.30;;;0.60;;
12892;SDS011;6514;48.606;9.222;2023-03-14T05:36:28;3.10;;;0.77;;
12892;SDS011;6514;48.606;9.222;2023-03-14T05:38:55;1.53;;;0.70;;
12892;SDS011;6514;48.606;9.222;2023-03-14T05:41:22;1.57;;;0.73;;
12892;SDS011;6514;48.606;9.222;2023-03-14T05:43:49;1.77;;;0.97;;
12892;SDS011;6514;48.606;9.222;2023-03-14T05:46:15;2.27;;;0.80;;
12892;SDS011;6514;48.606;9.222;2023-03-14T05:48:42;3.13;;;0.83;;
12892;SDS011;6514;48.606;9.222;2023-03-14T05:51:09;2.40;;;0.93;;
12892;SDS011;6514;48.606;9.222;2023-03-14T05:53:37;3.10;;;1.00;;
12892;SDS011;6514;48.606;9.222;2023-03-14T05:56:04;1.87;;;0.67;;
12892;SDS011;6514;48.606;9.222;2023-03-14T05:58:32;2.63;;;0.70;;
12892;SDS011;6514;48.606;9.222;2023-03-14T06:01:01;2.23;;;0.77;;
12892;SDS011;6514;48.606;9.222;2023-03-14T06:03:28;1.57;;;0.73;;
12892;SDS011;6514;48.606;9.222;2023-03-14T06:05:55;2.90;;;1.00;;
12892;SDS011;6514;48.606;9.222;2023-03-14T06:08:21;3.30;;;0.67;;
12892;SDS011;6514;48.606;9.222;2023-03-14T06:10:51;3.13;;;0.80;;
12892;SDS011;6514;48.606;9.222;2023-03-14T06:13:18;1.93;;;0.70;;
12892;SDS011;6514;48.606;9.222;2023-03-14T06:15:45;2.80;;;0.73;;
12892;SDS011;6514;48.606;9.222;2023-03-14T06:18:12;2.03;;;0.80;;
12892;SDS011;6514;48.606;9.222;2023-03-14T06:20:39;3.03;;;0.80;;
12892;SDS011;6514;48.606;9.222;2023-03-14T06:23:07;1.30;;;0.70;;
12892;SDS011;6514;48.606;9.222;2023-03-14T06:25:34;3.93;;;0.60;;
12892;SDS011;6514;48.606;9.222;2023-03-14T06:28:03;3.90;;;0.90;;
12892;SDS011;6514;48.606;9.222;2023-03-14T06:30:30;2.00;;;0.70;;
12892;SDS011;6514;48.606;9.222;2023-03-14T06:32:57;1.33;;;0.73;;
12892;SDS011;6514;48.606;9.222;2023-03-14T06:35:23;1.87;;;0.90;;
12892;SDS011;6514;48.606;9.222;2023-03-14T06:37:50;3.37;;;1.00;;
12892;SDS011;6514;48.606;9.222;2023-03-14T06:40:17;2.00;;;0.70;;
12892;SDS011;6514;48.606;9.222;2023-03-14T06:42:44;3.10;;;0.90;;
12892;SDS011;6514;48.606;9.222;2023-03-14T06:45:13;3.70;;;0.80;;
12892;SDS011;6514;48.606;9.222;2023-03-14T06:47:40;2.00;;;1.00;;
12892;SDS011;6514;48.606;9.222;2023-03-14T06:50:07;1.70;;;0.80;;
12892;SDS011;6514;48.606;9.222;2023-03-14T06:52:35;2.17;;;1.10;;
12892;SDS011;6514;48.606;9.222;2023-03-14T06:55:02;3.63;;;1.23;;
12892;SDS011;6514;48.606;9.222;2023-03-14T06:57:29;2.93;;;1.43;;
12892;SDS011;6514;48.606;9.222;2023-03-14T06:59:56;3.40;;;1.40;;
12892;SDS011;6514;48.606;9.222;2023-03-14T07:02:25;5.03;;;2.10;;
12892;SDS011;6514;48.606;9.222;2023-03-14T07:04:52;6.33;;;2.57;;
12892;SDS011;6514;48.606;9.222;2023-03-14T07:07:18;3.97;;;1.23;;
12892;SDS011;6514;48.606;9.222;2023-03-14T07:09:45;3.33;;;1.20;;
12892;SDS011;6514;48.606;9.222;2023-03-14T07:12:12;1.83;;;0.70;;
12892;SDS011;6514;48.606;9.222;2023-03-14T07:14:39;1.20;;;0.90;;
12892;SDS011;6514;48.606;9.222;2023-03-14T07:17:06;2.40;;;0.90;;
12892;SDS011;6514;48.606;9.222;2023-03-14T07:19:34;1.50;;;1.00;;
12892;SDS011;6514;48.606;9.222;2023-03-14T07:22:02;5.93;;;3.10;;
12892;SDS011;6514;48.606;9.222;2023-03-14T07:24:30;4.93;;;2.00;;
12892;SDS011;6514;48.606;9.222;2023-03-14T07:26:57;3.33;;;1.67;;
12892;SDS011;6514;48.606;9.222;2023-03-14T07:29:24;5.50;;;2.37;;
12892;SDS011;6514;48.606;9.222;2023-03-14T07:31:51;5.20;;;3.87;;
12892;SDS011;6514;48.606;9.222;2023-03-14T07:34:17;6.00;;;2.03;;
12892;SDS011;6514;48.606;9.222;2023-03-14T07:36:46;5.27;;;3.27;;
12892;SDS011;6514;48.606;9.222;2023-03-14T07:39:12;2.63;;;1.43;;
12892;SDS011;6514;48.606;9.222;2023-03-14T07:41:40;2.60;;;1.50;;
12892;SDS011;6514;48.606;9.222;2023-03-14T07:44:07;1.70;;;0.90;;
12892;SDS011;6514;48.606;9.222;2023-03-14T07:46:34;2.60;;;0.90;;
12892;SDS011;6514;48.606;9.222;2023-03-14T07:49:00;2.23;;;0.70;;
12892;SDS011;6514;48.606;9.222;2023-03-14T07:51:27;1.00;;;0.43;;
12892;SDS011;6514;48.606;9.222;2023-03-14T07:53:55;0.90;;;0.60;;
12892;SDS011;6514;48.606;9.222;2023-03-14T07:56:22;1.77;;;1.00;;
12892;SDS011;6514;48.606;9.222;2023-03-14T07:58:49;2.33;;;0.83;;
12892;SDS011;6514;48.606;9.222;2023-03-14T08:01:16;1.40;;;0.60;;
12892;SDS011;6514;48.606;9.222;2023-03-14T08:03:43;1.70;;;0.80;;
12892;SDS011;6514;48.606;9.222;2023-03-14T08:06:10;1.77;;;0.53;;
12892;SDS011;6514;48.606;9.222;2023-03-14T08:08:38;1.13;;;1.00;;
12892;SDS011;6514;48.606;9.222;2023-03-14T08:11:07;1.20;;;0.50;;
12892;SDS011;6514;48.606;9.222;2023-03-14T08:13:34;1.37;;;0.73;;
12892;SDS011;6514;48.606;9.222;2023-03-14T08:16:02;1.10;;;0.60;;
12892;SDS011;6514;48.606;9.222;2023-03-14T08:18:29;2.03;;;0.50;;
12892;SDS011;6514;48.606;9.222;2023-03-14T08:20:56;1.73;;;0.67;;
12892;SDS011;6514;48.606;9.222;2023-03-14T08:23:23;2.00;;;0.83;;
12892;SDS011;6514;48.606;9.222;2023-03-14T08:25:50;0.50;;;0.43;;
12892;SDS011;6514;48.606;9.222;2023-03-14T08:28:19;1.87;;;0.90;;
12892;SDS011;6514;48.606;9.222;2023-03-14T08:30:46;1.43;;;0.53;;
12892;SDS011;6514;48.606;9.222;2023-03-14T08:33:12;2.00;;;0.70;;
12892;SDS011;6514;48.606;9.222;2023-03-14T08:35:39;0.67;;;0.50;;
12892;SDS011;6514;48.606;9.222;2023-03-14T08:38:06;1.60;;;0.40;;
12892;SDS011;6514;48.606;9.222;2023-03-14T08:40:33;1.53;;;0.60;;
12892;SDS011;6514;48.606;9.222;2023-03-14T08:43:00;1.10;;;0.63;;
12892;SDS011;6514;48.606;9.222;2023-03-14T08:45:28;2.37;;;0.70;;
12892;SDS011;6514;48.606;9.222;2023-03-14T08:47:57;2.20;;;0.40;;
12892;SDS011;6514;48.606;9.222;2023-03-14T08:50:24;2.23;;;0.90;;
12892;SDS011;6514;48.606;9.222;2023-03-14T08:52:51;1.80;;;0.57;;
12892;SDS011;6514;48.606;9.222;2023-03-14T08:55:18;1.57;;;0.50;;
12892;SDS011;6514;48.606;9.222;2023-03-14T08:57:45;3.23;;;1.00;;
12892;SDS011;6514;48.606;9.222;2023-03-14T09:00:13;2.97;;;0.50;;
12892;SDS011;6514;48.606;9.222;2023-03-14T09:02:42;2.00;;;0.70;;
12892;SDS011;6514;48.606;9.222;2023-03-14T09:05:09;1.23;;;0.77;;
12892;SDS011;6514;48.606;9.222;2023-03-14T09:07:36;1.30;;;0.40;;
12892;SDS011;6514;48.606;9.222;2023-03-14T09:10:04;0.40;;;0.30;;
12892;SDS011;6514;48.606;9.222;2023-03-14T09:12:32;0.93;;;0.50;;
12892;SDS011;6514;48.606;9.222;2023-03-14T09:14:59;1.37;;;0.60;;
12892;SDS011;6514;48.606;9.222;2023-03-14T09:17:26;1.17;;;0.50;;
12892;SDS011;6514;48.606;9.222;2023-03-14T09:19:54;0.40;;;0.40;;
12892;SDS011;6514;48.606;9.222;2023-03-14T09:22:21;1.70;;;0.50;;
12892;SDS011;6514;48.606;9.222;2023-03-14T09:24:48;2.00;;;0.40;;
12892;SDS011;6514;48.606;9.222;2023-03-14T09:27:15;0.70;;;0.47;;
12892;SDS011;6514;48.606;9.222;2023-03-14T09:29:42;0.70;;;0.47;;
12892;SDS011;6514;48.606;9.222;2023-03-14T09:32:09;0.67;;;0.60;;
12892;SDS011;6514;48.606;9.222;2023-03-14T09:34:36;2.70;;;1.13;;
12892;SDS011;6514;48.606;9.222;2023-03-14T09:37:04;1.10;;;0.60;;
12892;SDS011;6514;48.606;9.222;2023-03-14T09:39:31;0.80;;;0.50;;
12892;SDS011;6514;48.606;9.222;2023-03-14T09:41:58;1.53;;;0.50;;
12892;SDS011;6514;48.606;9.222;2023-03-14T09:44:30;1.00;;;0.60;;
12892;SDS011;6514;48.606;9.222;2023-03-14T09:47:00;0.97;;;0.50;;
12892;SDS011;6514;48.606;9.222;2023-03-14T09:49:31;1.27;;;0.57;;
12892;SDS011;6514;48.606;9.222;2023-03-14T09:51:59;0.77;;;0.43;;
12892;SDS011;6514;48.606;9.222;2023-03-14T09:54:33;1.23;;;0.50;;
12892;SDS011;6514;48.606;9.222;2023-03-14T09:57:03;0.70;;;0.40;;
12892;SDS011;6514;48.606;9.222;2023-03-14T09:59:31;1.53;;;0.40;;
12892;SDS011;6514;48.606;9.222;2023-03-14T10:02:02;0.40;;;0.30;;
12892;SDS011;6514;48.606;9.222;2023-03-14T10:04:42;1.30;;;0.40;;
12892;SDS011;6514;48.606;9.222;2023-03-14T10:07:12;0.50;;;0.40;;
12892;SDS011;6514;48.606;9.222;2023-03-14T10:09:43;1.43;;;0.40;;
12892;SDS011;6514;48.606;9.222;2023-03-14T10:12:11;2.20;;;0.50;;
12892;SDS011;6514;48.606;9.222;2023-03-14T10:14:44;0.40;;;0.30;;
12892;SDS011;6514;48.606;9.222;2023-03-14T10:17:13;2.23;;;0.33;;
12892;SDS011;6514;48.606;9.222;2023-03-14T10:19:50;0.50;;;0.30;;
12892;SDS011;6514;48.606;9.222;2023-03-14T10:22:18;1.03;;;0.50;;
12892;SDS011;6514;48.606;9.222;2023-03-14T10:24:51;0.60;;;0.50;;
12892;SDS011;6514;48.606;9.222;2023-03-14T10:27:21;0.97;;;0.30;;
12892;SDS011;6514;48.606;9.222;2023-03-14T10:29:53;0.80;;;0.40;;
12892;SDS011;6514;48.606;9.222;2023-03-14T10:32:22;0.60;;;0.40;;
12892;SDS011;6514;48.606;9.222;2023-03-14T10:35:05;0.67;;;0.40;;
12892;SDS011;6514;48.606;9.222;2023-03-14T10:37:35;0.60;;;0.50;;
12892;SDS011;6514;48.606;9.222;2023-03-14T10:40:04;2.10;;;0.70;;
12892;SDS011;6514;48.606;9.222;2023-03-14T10:42:32;0.60;;;0.50;;
12892;SDS011;6514;48.606;9.222;2023-03-14T10:45:06;2.07;;;0.40;;
12892;SDS011;6514;48.606;9.222;2023-03-14T10:47:48;1.00;;;0.70;;
12892;SDS011;6514;48.606;9.222;2023-03-14T10:50:22;1.40;;;0.40;;
12892;SDS011;6514;48.606;9.222;2023-03-14T10:52:51;0.50;;;0.50;;
12892;SDS011;6514;48.606;9.222;2023-03-14T10:55:20;0.50;;;0.33;;
12892;SDS011;6514;48.606;9.222;2023-03-14T10:57:49;1.13;;;0.40;;
12892;SDS011;6514;48.606;9.222;2023-03-14T11:00:17;0.70;;;0.50;;
12892;SDS011;6514;48.606;9.222;2023-03-14T11:02:49;0.90;;;0.40;;
12892;SDS011;6514;48.606;9.222;2023-03-14T11:05:31;0.40;;;0.40;;
12892;SDS011;6514;48.606;9.222;2023-03-14T11:08:07;0.40;;;0.40;;
12892;SDS011;6514;48.606;9.222;2023-03-14T11:10:39;0.60;;;0.40;;
12892;SDS011;6514;48.606;9.222;2023-03-14T11:13:17;0.50;;;0.40;;
12892;SDS011;6514;48.606;9.222;2023-03-14T11:15:54;0.40;;;0.30;;
12892;SDS011;6514;48.606;9.222;2023-03-14T11:18:53;0.40;;;0.40;;
12892;SDS011;6514;48.606;9.222;2023-03-14T11:21:35;0.43;;;0.40;;
12892;SDS011;6514;48.606;9.222;2023-03-14T11:26:59;0.50;;;0.40;;
12892;SDS011;6514;48.606;9.222;2023-03-14T11:29:35;0.50;;;0.50;;
12892;SDS011;6514;48.606;9.222;2023-03-14T11:32:09;0.30;;;0.30;;
12892;SDS011;6514;48.606;9.222;2023-03-14T11:34:41;0.30;;;0.30;;
12892;SDS011;6514;48.606;9.222;2023-03-14T11:37:14;0.80;;;0.60;;
12892;SDS011;6514;48.606;9.222;2023-03-14T11:39:51;0.40;;;0.40;;
12892;SDS011;6514;48.606;9.222;2023-03-14T11:42:26;0.23;;;0.20;;
12892;SDS011;6514;48.606;9.222;2023-03-14T11:44:53;0.57;;;0.50;;
12892;SDS011;6514;48.606;9.222;2023-03-14T11:47:22;0.73;;;0.20;;
12892;SDS011;6514;48.606;9.222;2023-03-14T11:49:53;0.40;;;0.40;;
12892;SDS011;6514;48.606;9.222;2023-03-14T11:52:25;0.40;;;0.40;;
12892;SDS011;6514;48.606;9.222;2023-03-14T11:54:56;1.07;;;0.40;;
12892;SDS011;6514;48.606;9.222;2023-03-14T11:57:30;0.40;;;0.40;;
12892;SDS011;6514;48.606;9.222;2023-03-14T11:59:58;0.57;;;0.40;;
12892;SDS011;6514;48.606;9.222;2023-03-14T12:02:33;1.27;;;1.07;;
12892;SDS011;6514;48.606;9.222;2023-03-14T12:05:25;0.40;;;0.40;;
12892;SDS011;6514;48.606;9.222;2023-03-14T12:08:20;0.60;;;0.40;;
12892;SDS011;6514;48.606;9.222;2023-03-14T12:10:55;0.23;;;0.23;;
12892;SDS011;6514;48.606;9.222;2023-03-14T12:13:29;0.30;;;0.30;;
12892;SDS011;6514;48.606;9.222;2023-03-14T12:16:00;0.40;;;0.30;;
12892;SDS011;6514;48.606;9.222;2023-03-14T12:18:31;0.53;;;0.40;;
12892;SDS011;6514;48.606;9.222;2023-03-14T12:21:00;0.80;;;0.30;;
12892;SDS011;6514;48.606;9.222;2023-03-14T12:23:34;0.40;;;0.40;;
12892;SDS011;6514;48.606;9.222;2023-03-14T12:26:08;0.50;;;0.50;;
12892;SDS011;6514;48.606;9.222;2023-03-14T12:28:43;0.30;;;0.30;;
12892;SDS011;6514;48.606;9.222;2023-03-14T12:36:54;0.57;;;0.40;;
12892;SDS011;6514;48.606;9.222;2023-03-14T12:39:32;0.60;;;0.40;;
12892;SDS011;6514;48.606;9.222;2023-03-14T12:42:05;0.30;;;0.30;;
12892;SDS011;6514;48.606;9.222;2023-03-14T12:44:41;0.90;;;0.40;;
12892;SDS011;6514;48.606;9.222;2023-03-14T12:50:13;0.83;;;0.43;;
12892;SDS011;6514;48.606;9.222;2023-03-14T12:52:46;0.50;;;0.20;;
12892;SDS011;6514;48.606;9.222;2023-03-14T12:55:24;1.67;;;0.30;;
12892;SDS011;6514;48.606;9.222;2023-03-14T12:58:00;0.83;;;0.40;;
12892;SDS011;6514;48.606;9.222;2023-03-14T13:00:34;0.57;;;0.40;;
12892;SDS011;6514;48.606;9.222;2023-03-14T13:03:12;2.83;;;1.40;;
12892;SDS011;6514;48.606;9.222;2023-03-14T13:05:51;0.83;;;0.80;;
12892;SDS011;6514;48.606;9.222;2023-03-14T13:08:32;1.60;;;0.40;;
12892;SDS011;6514;48.606;9.222;2023-03-14T13:11:01;0.50;;;0.40;;
12892;SDS011;6514;48.606;9.222;2023-03-14T13:13:30;2.43;;;0.30;;
12892;SDS011;6514;48.606;9.222;2023-03-14T13:16:02;0.60;;;0.43;;
12892;SDS011;6514;48.606;9.222;2023-03-14T13:18:33;1.30;;;0.50;;
12892;SDS011;6514;48.606;9.222;2023-03-14T13:21:02;0.30;;;0.30;;
12892;SDS011;6514;48.606;9.222;2023-03-14T13:23:32;0.73;;;0.40;;
12892;SDS011;6514;48.606;9.222;2023-03-14T13:26:00;0.80;;;0.40;;
12892;SDS011;6514;48.606;9.222;2023-03-14T13:28:29;1.07;;;0.50;;
12892;SDS011;6514;48.606;9.222;2023-03-14T13:30:57;3.07;;;0.70;;
12892;SDS011;6514;48.606;9.222;2023-03-14T13:33:27;1.07;;;0.47;;
12892;SDS011;6514;48.606;9.222;2023-03-14T13:35:55;2.40;;;0.57;;
12892;SDS011;6514;48.606;9.222;2023-03-14T13:38:24;0.97;;;0.30;;
12892;SDS011;6514;48.606;9.222;2023-03-14T13:40:53;0.80;;;0.50;;
12892;SDS011;6514;48.606;9.222;2023-03-14T13:43:25;2.53;;;0.50;;
12892;SDS011;6514;48.606;9.222;2023-03-14T13:45:56;1.20;;;0.60;;
12892;SDS011;6514;48.606;9.222;2023-03-14T13:48:30;1.93;;;0.77;;
12892;SDS011;6514;48.606;9.222;2023-03-14T13:51:01;0.90;;;0.50;;
12892;SDS011;6514;48.606;9.222;2023-03-14T13:53:29;1.90;;;0.70;;
12892;SDS011;6514;48.606;9.222;2023-03-14T13:55:57;1.53;;;0.57;;
12892;SDS011;6514;48.606;9.222;2023-03-14T13:58:28;1.67;;;0.60;;
12892;SDS011;6514;48.606;9.222;2023-03-14T14:01:00;1.30;;;0.60;;
12892;SDS011;6514;48.606;9.222;2023-03-14T14:03:31;0.70;;;0.50;;
12892;SDS011;6514;48.606;9.222;2023-03-14T14:06:00;2.23;;;0.80;;
12892;SDS011;6514;48.606;9.222;2023-03-14T14:08:27;1.27;;;0.60;;
12892;SDS011;6514;48.606;9.222;2023-03-14T14:10:57;1.63;;;0.70;;
12892;SDS011;6514;48.606;9.222;2023-03-14T14:13:27;3.00;;;0.90;;
12892;SDS011;6514;48.606;9.222;2023-03-14T14:15:57;1.47;;;0.60;;
12892;SDS011;6514;48.606;9.222;2023-03-14T14:18:28;0.73;;;0.63;;
12892;SDS011;6514;48.606;9.222;2023-03-14T14:20:58;1.10;;;1.00;;
12892;SDS011;6514;48.606;9.222;2023-03-14T14:23:26;1.60;;;0.50;;
12892;SDS011;6514;48.606;9.222;2023-03-14T14:25:54;1.90;;;0.50;;
12892;SDS011;6514;48.606;9.222;2023-03-14T14:28:24;3.47;;;0.80;;
12892;SDS011;6514;48.606;9.222;2023-03-14T14:31:00;2.97;;;0.77;;
12892;SDS011;6514;48.606;9.222;2023-03-14T14:33:37;1.13;;;0.60;;
12892;SDS011;6514;48.606;9.222;2023-03-14T14:36:11;2.20;;;0.57;;
12892;SDS011;6514;48.606;9.222;2023-03-14T14:38:42;1.00;;;0.60;;
12892;SDS011;6514;48.606;9.222;2023-03-14T14:41:15;3.53;;;0.73;;
12892;SDS011;6514;48.606;9.222;2023-03-14T14:43:42;1.80;;;0.70;;
12892;SDS011;6514;48.606;9.222;2023-03-14T14:46:09;0.93;;;0.50;;
12892;SDS011;6514;48.606;9.222;2023-03-14T14:48:43;1.50;;;0.60;;
12892;SDS011;6514;48.606;9.222;2023-03-14T14:51:11;1.60;;;0.70;;
12892;SDS011;6514;48.606;9.222;2023-03-14T14:53:49;0.97;;;0.70;;
12892;SDS011;6514;48.606;9.222;2023-03-14T14:56:26;0.90;;;0.60;;
12892;SDS011;6514;48.606;9.222;2023-03-14T14:58:55;2.17;;;0.70;;
12892;SDS011;6514;48.606;9.222;2023-03-14T15:01:25;2.70;;;0.90;;
12892;SDS011;6514;48.606;9.222;2023-03-14T15:03:56;3.20;;;0.67;;
12892;SDS011;6514;48.606;9.222;2023-03-14T15:06:26;2.93;;;0.60;;
12892;SDS011;6514;48.606;9.222;2023-03-14T15:08:56;1.23;;;0.60;;
12892;SDS011;6514;48.606;9.222;2023-03-14T15:11:24;1.43;;;0.80;;
12892;SDS011;6514;48.606;9.222;2023-03-14T15:13:52;2.30;;;0.50;;
12892;SDS011;6514;48.606;9.222;2023-03-14T15:16:20;2.57;;;0.60;;
12892;SDS011;6514;48.606;9.222;2023-03-14T15:18:50;1.57;;;0.80;;
12892;SDS011;6514;48.606;9.222;2023-03-14T15:21:21;2.33;;;0.60;;
12892;SDS011;6514;48.606;9.222;2023-03-14T15:23:49;1.17;;;0.67;;
12892;SDS011;6514;48.606;9.222;2023-03-14T15:26:17;2.23;;;0.60;;